Time;durP1;ratioP1;P1;durP2;ratioP2;P2;SDS_P1;SDS_P2;PMS_P1;PMS_P2;Temp;Humidity;BMP_temperature;BMP_pressure;BME280_temperature;BME280_humidity;BME280_pressure;Samples;Min_cycle;Max_cycle;Signal;HPM_P1;HPM_P2
2022/08/25 00:00:20;;;;;;;17.20;6.10;;;;;;;19.11;84.52;98186.16;106382;1280;24283;-91
2022/08/25 00:03:03;;;;;;;19.00;5.60;;;;;;;18.97;85.02;98187.27;106455;1280;25244;-90
2022/08/25 00:05:31;;;;;;;17.80;6.50;;;;;;;18.92;85.77;98184.07;106665;1280;25361;-89
2022/08/25 00:08:02;;;;;;;14.30;5.90;;;;;;;19.00;86.05;98187.67;107303;1280;24313;-92
2022/08/25 00:10:34;;;;;;;14.90;5.80;;;;;;;18.88;85.31;98184.05;106517;1280;22523;-91
2022/08/25 00:13:03;;;;;;;17.60;5.50;;;;;;;18.77;85.47;98180.37;106533;1280;22886;-91
2022/08/25 00:15:31;;;;;;;16.60;5.40;;;;;;;18.72;85.61;98178.20;106117;1280;22562;-90
2022/08/25 00:18:00;;;;;;;14.80;5.40;;;;;;;18.67;86.10;98179.27;105703;1281;22591;-89
2022/08/25 00:20:28;;;;;;;17.20;6.40;;;;;;;18.81;87.74;98172.84;106142;1280;22725;-88
2022/08/25 00:22:57;;;;;;;19.10;6.10;;;;;;;19.02;87.30;98174.29;106171;1280;24810;-89
2022/08/25 00:25:25;;;;;;;16.90;5.80;;;;;;;19.10;87.05;98174.36;106083;1280;22595;-88
2022/08/25 00:27:56;;;;;;;18.30;5.80;;;;;;;19.10;86.84;98174.77;106257;1280;24814;-88
2022/08/25 00:30:24;;;;;;;16.40;5.40;;;;;;;19.03;86.51;98171.61;106245;1280;22616;-87
2022/08/25 00:32:52;;;;;;;18.10;5.80;;;;;;;19.01;86.07;98171.16;106102;1280;22560;-87
2022/08/25 00:35:25;;;;;;;23.10;6.50;;;;;;;18.89;85.58;98167.21;106159;1280;22863;-87
2022/08/25 00:37:53;;;;;;;16.00;5.00;;;;;;;18.77;85.95;98167.82;106272;1278;22707;-86
2022/08/25 00:40:24;;;;;;;15.00;5.30;;;;;;;18.71;86.22;98171.47;106240;1280;22738;-86
2022/08/25 00:42:54;;;;;;;18.10;5.90;;;;;;;18.65;86.26;98176.09;106005;1280;25271;-86
2022/08/25 00:45:23;;;;;;;16.10;5.60;;;;;;;18.62;87.35;98173.60;106306;1280;23451;-88
2022/08/25 00:47:51;;;;;;;18.10;5.70;;;;;;;18.59;87.20;98175.14;106097;1280;22698;-87
2022/08/25 00:50:21;;;;;;;17.90;5.70;;;;;;;18.77;88.61;98173.41;106092;1280;22563;-87
2022/08/25 00:52:57;;;;;;;15.00;5.10;;;;;;;18.90;87.21;98170.28;106092;1280;22546;-88
2022/08/25 00:55:30;;;;;;;17.70;6.20;;;;;;;18.82;86.73;98163.04;106196;1280;25356;-91
2022/08/25 00:58:13;;;;;;;15.50;5.70;;;;;;;18.74;86.94;98163.96;106109;1278;22558;-89
2022/08/25 01:00:46;;;;;;;14.80;6.30;;;;;;;18.69;87.14;98166.77;106144;1280;25315;-89
2022/08/25 01:03:18;;;;;;;21.40;7.40;;;;;;;18.73;88.08;98164.92;106272;1280;22572;-90
2022/08/25 01:05:46;;;;;;;17.60;6.30;;;;;;;18.78;87.41;98163.02;106570;1280;22728;-92
2022/08/25 01:08:20;;;;;;;16.70;6.00;;;;;;;18.74;87.60;98158.76;106454;1280;22608;-89
2022/08/25 01:10:49;;;;;;;22.20;7.50;;;;;;;18.92;90.37;98158.17;106359;1280;22860;-89
2022/08/25 01:13:20;;;;;;;16.10;6.00;;;;;;;19.07;88.28;98156.80;105964;1280;24686;-87
2022/08/25 01:15:52;;;;;;;18.10;6.20;;;;;;;19.05;87.72;98158.95;107471;1280;25312;-89
2022/08/25 01:18:21;;;;;;;18.40;6.60;;;;;;;19.01;87.48;98159.85;106300;1280;22828;-94
2022/08/25 01:20:51;;;;;;;19.50;6.10;;;;;;;18.92;87.72;98159.74;106381;1280;24350;-89
2022/08/25 01:23:20;;;;;;;17.40;5.90;;;;;;;18.98;88.06;98157.55;106165;1280;23386;-87
2022/08/25 01:26:06;;;;;;;15.30;5.30;;;;;;;18.91;88.20;98156.67;106135;1280;22548;-90
2022/08/25 01:28:36;;;;;;;19.00;5.90;;;;;;;19.00;88.42;98160.23;106222;1280;22552;-91
2022/08/25 01:31:04;;;;;;;17.50;6.00;;;;;;;19.01;87.67;98159.91;106302;1279;24354;-90
2022/08/25 01:33:51;;;;;;;20.20;7.00;;;;;;;18.87;87.69;98152.50;106126;1280;22739;-92
2022/08/25 01:36:20;;;;;;;15.70;5.60;;;;;;;18.74;87.81;98151.58;106031;1280;22829;-90
2022/08/25 01:38:49;;;;;;;18.70;6.30;;;;;;;18.67;88.01;98150.25;106229;1280;22573;-89
2022/08/25 01:41:30;;;;;;;22.80;7.10;;;;;;;18.57;88.02;98144.84;106310;1279;22563;-90
2022/08/25 01:43:59;;;;;;;22.50;6.20;;;;;;;18.44;88.10;98141.26;106195;1280;25355;-86
2022/08/25 01:46:27;;;;;;;18.20;6.10;;;;;;;18.37;88.80;98145.72;106223;1280;24338;-89
2022/08/25 01:48:55;;;;;;;15.80;5.60;;;;;;;18.32;89.27;98143.77;106295;1280;22706;-90
2022/08/25 01:51:26;;;;;;;22.40;6.80;;;;;;;18.29;89.82;98139.63;106247;1280;22557;-87
2022/08/25 01:53:54;;;;;;;19.50;6.10;;;;;;;18.23;90.08;98137.89;106345;1280;25483;-90
2022/08/25 01:56:22;;;;;;;16.10;4.90;;;;;;;18.27;90.36;98137.78;106319;1280;25235;-89
2022/08/25 01:58:52;;;;;;;10.50;4.50;;;;;;;18.39;90.60;98136.35;106319;1279;22543;-90
2022/08/25 02:01:23;;;;;;;16.80;6.00;;;;;;;18.64;92.39;98133.96;106247;1279;22705;-91
2022/08/25 02:03:54;;;;;;;14.40;5.50;;;;;;;18.78;90.72;98136.34;106268;1280;22631;-90
2022/08/25 02:06:28;;;;;;;16.30;5.90;;;;;;;18.89;91.19;98132.52;106250;1280;22754;-89
2022/08/25 02:09:00;;;;;;;17.60;5.80;;;;;;;18.99;90.75;98130.45;106281;1280;24230;-89
2022/08/25 02:11:28;;;;;;;27.50;6.60;;;;;;;19.06;90.88;98129.54;106032;1280;24107;-88
2022/08/25 02:13:57;;;;;;;22.40;7.30;;;;;;;19.20;91.58;98126.64;105822;1280;22734;-90
2022/08/25 02:16:29;;;;;;;27.20;6.60;;;;;;;19.34;90.84;98125.98;106292;1279;23287;-89
2022/08/25 02:18:58;;;;;;;21.00;6.30;;;;;;;19.47;90.45;98125.39;106302;1279;22558;-88
2022/08/25 02:21:27;;;;;;;20.70;6.00;;;;;;;19.43;88.86;98130.67;106483;1280;22566;-90
2022/08/25 02:23:55;;;;;;;18.00;6.60;;;;;;;19.24;88.60;98127.67;107346;1280;22691;-89
2022/08/25 02:26:24;;;;;;;18.60;6.00;;;;;;;19.16;89.26;98123.73;106351;1279;22657;-88
2022/08/25 02:28:52;;;;;;;23.50;7.10;;;;;;;19.17;89.89;98127.58;106112;1280;22716;-90
2022/08/25 02:31:22;;;;;;;22.20;7.30;;;;;;;19.18;89.12;98122.92;106148;1280;24224;-87
2022/08/25 02:33:51;;;;;;;23.20;7.10;;;;;;;19.06;88.47;98127.60;106234;1280;25281;-90
2022/08/25 02:36:20;;;;;;;20.10;6.80;;;;;;;18.92;88.52;98127.52;105706;1280;25356;-89
2022/08/25 02:38:48;;;;;;;23.50;7.20;;;;;;;18.82;89.19;98121.17;106199;1280;24439;-90
2022/08/25 02:41:19;;;;;;;21.40;6.90;;;;;;;18.75;89.43;98120.32;106090;1280;22568;-89
2022/08/25 02:43:48;;;;;;;25.70;7.90;;;;;;;18.62;89.71;98119.69;106184;1280;22781;-89
2022/08/25 02:46:19;;;;;;;21.60;6.70;;;;;;;18.49;90.12;98121.91;106070;1280;22835;-90
2022/08/25 02:48:47;;;;;;;20.50;7.30;;;;;;;18.37;90.57;98120.77;106275;1279;25361;-89
2022/08/25 02:51:15;;;;;;;21.20;6.70;;;;;;;18.28;91.12;98117.94;106267;1280;22705;-89
2022/08/25 02:53:45;;;;;;;20.50;6.80;;;;;;;18.21;91.65;98117.48;106266;1280;22606;-87
2022/08/25 02:56:15;;;;;;;24.90;7.00;;;;;;;18.18;91.80;98119.35;106319;1280;22880;-86
2022/08/25 02:58:44;;;;;;;23.30;7.20;;;;;;;18.19;92.08;98122.73;106442;1280;22875;-88
2022/08/25 03:01:14;;;;;;;20.70;7.60;;;;;;;18.26;92.54;98118.67;106237;1280;22705;-89
2022/08/25 03:03:44;;;;;;;19.30;7.20;;;;;;;18.38;92.92;98117.23;106079;1277;25537;-89
2022/08/25 03:06:17;;;;;;;22.80;7.70;;;;;;;18.54;93.91;98113.02;106119;1280;24419;-90
2022/08/25 03:08:45;;;;;;;20.10;6.90;;;;;;;18.75;93.56;98113.55;106233;1277;22691;-90
2022/08/25 03:11:13;;;;;;;15.60;6.30;;;;;;;18.91;93.84;98112.37;106198;1278;24297;-86
2022/08/25 03:13:41;;;;;;;22.50;8.10;;;;;;;19.16;94.45;98106.78;106041;1280;25316;-88
2022/08/25 03:16:10;;;;;;;20.70;6.90;;;;;;;19.29;92.50;98102.59;106158;1280;24212;-87
2022/08/25 03:18:41;;;;;;;24.70;7.80;;;;;;;19.23;91.88;98100.49;106178;1280;26081;-88
2022/08/25 03:21:11;;;;;;;20.00;7.40;;;;;;;19.16;91.87;98098.52;106307;1280;23366;-87
2022/08/25 03:23:40;;;;;;;22.60;8.30;;;;;;;19.19;92.54;98097.52;106263;1279;22572;-87
2022/08/25 03:28:55;;;;;;;26.30;8.10;;;;;;;19.19;91.89;98096.02;106268;1278;22711;-87
2022/08/25 03:31:27;;;;;;;26.10;8.60;;;;;;;19.06;92.09;98094.27;107043;1280;22577;-89
2022/08/25 03:33:55;;;;;;;21.80;7.80;;;;;;;18.91;92.21;98099.25;106571;1280;23406;-90
2022/08/25 03:36:24;;;;;;;28.20;8.50;;;;;;;18.81;92.71;98101.09;106297;1280;22560;-89
2022/08/25 03:38:52;;;;;;;23.90;8.00;;;;;;;18.73;93.11;98098.11;106387;1280;22714;-91
2022/08/25 03:41:25;;;;;;;22.20;7.00;;;;;;;18.63;94.26;98098.23;106061;1280;24877;-88
2022/08/25 03:43:56;;;;;;;27.10;7.60;;;;;;;18.57;94.60;98097.04;106353;1279;22605;-91
2022/08/25 03:46:33;;;;;;;23.40;7.60;;;;;;;18.52;94.86;98101.73;105914;1280;24492;-88
2022/08/25 03:49:05;;;;;;;25.70;8.20;;;;;;;18.47;94.73;98092.33;106046;1280;23010;-89
2022/08/25 03:51:41;;;;;;;26.30;7.80;;;;;;;18.54;94.78;98092.13;106265;1280;22620;-86
2022/08/25 03:54:10;;;;;;;26.30;7.70;;;;;;;18.64;94.65;98094.11;106221;1280;25394;-86
2022/08/25 03:56:39;;;;;;;27.00;7.10;;;;;;;18.71;94.05;98091.59;106200;1280;22625;-86
2022/08/25 03:59:08;;;;;;;26.30;8.00;;;;;;;18.75;94.14;98092.01;106215;1280;24142;-88
2022/08/25 04:01:39;;;;;;;24.90;7.60;;;;;;;18.80;93.57;98093.80;106154;1278;22690;-88
2022/08/25 04:04:09;;;;;;;21.70;7.70;;;;;;;18.84;94.29;98097.34;106070;1280;25631;-88
2022/08/25 04:06:38;;;;;;;22.90;7.70;;;;;;;18.94;94.01;98096.69;106080;1280;22490;-88
2022/08/25 04:09:07;;;;;;;29.90;9.60;;;;;;;18.97;93.76;98093.48;106210;1280;22671;-88
2022/08/25 04:11:35;;;;;;;25.30;7.70;;;;;;;19.01;93.66;98096.65;106215;1279;22708;-88
2022/08/25 04:14:04;;;;;;;23.00;8.60;;;;;;;19.01;93.27;98096.09;106213;1280;25490;-88
2022/08/25 04:16:34;;;;;;;22.60;7.60;;;;;;;19.07;94.13;98097.81;106080;1279;26645;-88
2022/08/25 04:19:06;;;;;;;24.20;7.70;;;;;;;19.22;93.93;98098.73;106019;1280;25464;-89
2022/08/25 04:21:37;;;;;;;25.40;8.30;;;;;;;19.25;93.13;98099.13;106155;1280;22584;-87
2022/08/25 04:24:08;;;;;;;28.60;9.00;;;;;;;19.18;92.49;98100.98;106232;1279;24829;-88
2022/08/25 04:26:41;;;;;;;29.40;8.40;;;;;;;19.08;92.32;98102.89;106034;1280;22728;-90
2022/08/25 04:29:10;;;;;;;17.30;7.10;;;;;;;18.98;92.47;98103.04;106029;1280;24424;-86
2022/08/25 04:31:40;;;;;;;18.60;6.70;;;;;;;18.93;92.71;98102.69;106105;1280;25339;-86
2022/08/25 04:34:09;;;;;;;16.90;6.50;;;;;;;18.99;93.42;98106.95;106127;1280;25468;-87
2022/08/25 04:37:01;;;;;;;19.10;6.20;;;;;;;19.13;93.91;98099.30;106351;1280;22561;-90
2022/08/25 04:39:30;;;;;;;19.00;7.20;;;;;;;19.37;95.75;98096.33;106934;1280;22496;-88
2022/08/25 04:41:59;;;;;;;19.80;7.50;;;;;;;19.66;95.53;98095.25;106501;1280;22544;-86
2022/08/25 04:44:30;;;;;;;21.10;6.70;;;;;;;19.85;94.62;98098.06;106242;1280;22757;-87
2022/08/25 04:46:59;;;;;;;17.40;7.00;;;;;;;19.92;93.35;98095.56;106330;1280;24177;-87
2022/08/25 04:49:27;;;;;;;20.00;7.20;;;;;;;19.88;92.76;98098.69;105876;1281;22696;-88
2022/08/25 04:51:56;;;;;;;24.30;7.10;;;;;;;19.85;92.74;98095.63;106181;1280;23316;-88
2022/08/25 04:54:24;;;;;;;24.70;8.00;;;;;;;19.83;92.57;98093.65;106245;1280;25472;-89
2022/08/25 04:56:53;;;;;;;22.30;7.20;;;;;;;19.78;92.21;98096.51;106198;1280;25481;-91
2022/08/25 04:59:26;;;;;;;21.90;7.60;;;;;;;19.71;92.17;98091.55;106180;1280;24339;-88
2022/08/25 05:02:01;;;;;;;21.10;6.40;;;;;;;19.64;92.88;98090.45;106328;1280;22556;-91
2022/08/25 05:04:32;;;;;;;28.50;7.70;;;;;;;19.62;93.20;98090.29;106142;1280;24227;-90
2022/08/25 05:07:00;;;;;;;23.40;8.50;;;;;;;19.55;93.50;98087.23;106264;1280;22545;-88
2022/08/25 05:09:29;;;;;;;22.20;7.70;;;;;;;19.49;93.39;98088.04;106269;1280;22538;-87
2022/08/25 05:12:01;;;;;;;28.80;9.20;;;;;;;19.46;93.12;98090.62;106219;1280;24899;-90
2022/08/25 05:14:31;;;;;;;21.50;7.70;;;;;;;19.45;93.62;98092.54;106270;1280;22524;-90
2022/08/25 05:16:59;;;;;;;24.00;8.00;;;;;;;19.59;94.45;98090.70;106198;1280;25408;-87
2022/08/25 05:19:28;;;;;;;24.90;11.60;;;;;;;19.77;94.75;98091.54;105976;1280;25302;-87
2022/08/25 05:21:56;;;;;;;25.50;10.50;;;;;;;19.96;94.21;98087.15;106148;1280;22586;-89
2022/08/25 05:24:25;;;;;;;30.00;7.80;;;;;;;20.01;93.52;98084.76;106202;1280;24422;-87
2022/08/25 05:26:53;;;;;;;26.70;9.80;;;;;;;20.05;93.26;98083.67;106021;1280;23005;-87
2022/08/25 05:29:22;;;;;;;25.70;9.30;;;;;;;20.10;93.35;98088.16;106320;1279;23229;-89
2022/08/25 05:31:50;;;;;;;25.30;9.80;;;;;;;20.14;93.44;98092.17;106467;1280;23286;-89
2022/08/25 05:34:18;;;;;;;27.10;9.50;;;;;;;20.16;93.30;98092.67;106117;1280;25385;-87
2022/08/25 05:36:47;;;;;;;25.90;10.10;;;;;;;20.15;93.26;98092.65;106182;1280;22728;-90
2022/08/25 05:39:16;;;;;;;28.20;9.90;;;;;;;20.18;93.43;98092.41;105944;1280;22553;-89
2022/08/25 05:41:44;;;;;;;26.70;9.80;;;;;;;20.23;93.27;98089.40;106309;1280;22553;-87
2022/08/25 05:44:12;;;;;;;27.50;10.70;;;;;;;20.30;93.54;98089.01;106060;1280;22597;-86
2022/08/25 05:46:44;;;;;;;28.00;10.90;;;;;;;20.39;93.50;98093.80;106749;1280;22606;-88
2022/08/25 05:49:12;;;;;;;31.60;11.80;;;;;;;20.44;93.36;98087.34;107221;1280;25343;-91
2022/08/25 05:51:40;;;;;;;22.20;10.30;;;;;;;20.49;93.29;98090.02;106673;1280;22570;-92
2022/08/25 05:54:08;;;;;;;31.20;11.30;;;;;;;20.58;93.29;98089.45;106320;1280;24584;-87
2022/08/25 05:56:36;;;;;;;27.40;10.40;;;;;;;20.65;93.24;98089.90;106473;1279;23280;-89
2022/08/25 05:59:04;;;;;;;25.20;10.90;;;;;;;20.71;92.95;98091.11;106250;1280;26584;-85
2022/08/25 06:04:23;;;;;;;30.00;10.40;;;;;;;20.75;93.07;98088.14;106812;1280;22880;-91
2022/08/25 06:06:53;;;;;;;30.20;10.10;;;;;;;20.79;93.09;98088.54;106416;1280;22843;-91
2022/08/25 06:09:23;;;;;;;23.20;9.30;;;;;;;20.84;92.92;98087.08;106641;1280;24440;-91
2022/08/25 06:11:52;;;;;;;21.70;10.50;;;;;;;20.97;93.29;98089.27;106689;1280;22605;-89
2022/08/25 06:14:22;;;;;;;27.90;10.50;;;;;;;21.11;93.23;98090.64;106614;1280;23589;-87
2022/08/25 06:16:54;;;;;;;32.40;11.10;;;;;;;21.29;93.49;98088.67;106469;1280;23607;-88
2022/08/25 06:19:23;;;;;;;27.60;11.50;;;;;;;21.44;92.99;98096.55;106639;1280;22535;-91
2022/08/25 06:21:55;;;;;;;30.00;12.00;;;;;;;21.58;92.70;98097.48;106533;1280;25372;-88
2022/08/25 06:24:25;;;;;;;30.60;14.00;;;;;;;21.66;92.57;98097.41;106603;1280;22576;-87
2022/08/25 06:26:55;;;;;;;37.80;13.80;;;;;;;21.73;92.32;98094.84;106514;1280;22482;-88
2022/08/25 06:29:24;;;;;;;31.50;14.40;;;;;;;21.77;91.83;98091.31;107905;1280;22712;-89
2022/08/25 06:31:52;;;;;;;34.90;12.60;;;;;;;21.80;91.70;98090.64;109033;1280;22650;-85
2022/08/25 06:34:20;;;;;;;26.30;15.30;;;;;;;21.84;91.70;98095.48;109237;1280;22568;-86
2022/08/25 06:36:54;;;;;;;35.60;17.30;;;;;;;21.83;91.26;98096.89;109270;1279;22604;-88
2022/08/25 06:39:26;;;;;;;31.60;17.40;;;;;;;21.86;91.39;98095.52;108993;1280;23034;-85
2022/08/25 06:41:55;;;;;;;27.90;11.70;;;;;;;21.93;91.34;98099.00;109319;1279;22541;-87
2022/08/25 06:44:26;;;;;;;32.10;10.30;;;;;;;22.01;91.19;98098.73;109120;1280;23338;-86
2022/08/25 06:46:54;;;;;;;32.90;14.70;;;;;;;22.13;91.55;98095.68;109139;1280;22575;-86
2022/08/25 06:49:26;;;;;;;34.20;16.60;;;;;;;22.22;91.19;98094.42;109067;1280;22565;-87
2022/08/25 06:52:02;;;;;;;29.90;13.10;;;;;;;22.32;91.11;98096.44;108992;1280;22736;-85
2022/08/25 06:54:30;;;;;;;32.50;12.10;;;;;;;22.43;91.16;98092.27;109284;1280;22489;-85
2022/08/25 06:56:58;;;;;;;37.50;12.90;;;;;;;22.55;90.71;98095.89;108900;1280;22626;-88
2022/08/25 06:59:26;;;;;;;40.20;14.00;;;;;;;22.66;90.33;98095.86;107677;1280;22709;-89
2022/08/25 07:02:06;;;;;;;31.40;10.30;;;;;;;22.76;90.26;98094.56;109061;1277;22980;-85
2022/08/25 07:04:35;;;;;;;34.50;11.10;;;;;;;22.81;89.65;98092.04;109045;1280;22544;-85
2022/08/25 07:07:03;;;;;;;29.40;9.90;;;;;;;22.84;89.61;98088.30;109110;1281;22965;-85
2022/08/25 07:09:31;;;;;;;28.60;9.30;;;;;;;22.90;89.64;98089.16;109293;1280;22582;-86
2022/08/25 07:12:07;;;;;;;38.30;11.30;;;;;;;23.02;89.54;98088.91;109227;1280;22660;-87
2022/08/25 07:14:35;;;;;;;38.00;10.80;;;;;;;23.13;89.07;98090.29;109335;1280;22522;-87
2022/08/25 07:17:04;;;;;;;32.80;10.20;;;;;;;23.19;88.90;98088.45;109288;1280;22540;-87
2022/08/25 07:19:39;;;;;;;28.30;9.80;;;;;;;23.27;88.58;98091.67;109245;1280;22678;-87
2022/08/25 07:22:08;;;;;;;33.10;10.10;;;;;;;23.32;87.85;98093.38;109325;1279;22573;-87
2022/08/25 07:24:36;;;;;;;31.00;9.20;;;;;;;23.35;87.60;98091.99;109291;1280;22548;-87
2022/08/25 07:27:04;;;;;;;37.70;9.90;;;;;;;23.43;87.40;98093.64;109310;1280;22532;-87
2022/08/25 07:29:35;;;;;;;31.30;9.10;;;;;;;23.53;87.24;98087.84;109221;1280;22683;-89
2022/08/25 07:32:14;;;;;;;34.30;10.60;;;;;;;23.60;87.39;98089.86;109336;1280;22546;-88
2022/08/25 07:37:30;;;;;;;34.60;11.00;;;;;;;23.68;85.84;98093.05;108657;1280;22528;-90
2022/08/25 07:40:22;;;;;;;30.30;9.40;;;;;;;23.65;85.15;98097.98;108053;1280;22666;-89
2022/08/25 07:42:55;;;;;;;34.80;9.40;;;;;;;23.63;85.19;98096.08;106945;1280;24190;-88
2022/08/25 07:45:30;;;;;;;32.30;9.90;;;;;;;23.71;85.54;98095.92;106880;1280;23029;-90
2022/08/25 07:48:10;;;;;;;32.40;9.80;;;;;;;23.78;84.86;98096.79;106988;1284;22594;-91
2022/08/25 07:50:44;;;;;;;29.50;9.70;;;;;;;23.82;85.17;98095.95;106754;1280;25407;-90
2022/08/25 07:53:14;;;;;;;36.00;9.20;;;;;;;23.86;84.72;98098.58;107439;1280;22858;-88
2022/08/25 07:55:42;;;;;;;31.90;9.90;;;;;;;23.88;84.04;98092.05;106511;1281;22730;-87
2022/08/25 07:58:14;;;;;;;39.20;10.40;;;;;;;23.95;84.48;98095.02;106436;1280;22776;-88
2022/08/25 08:00:46;;;;;;;26.00;9.90;;;;;;;24.04;84.51;98096.35;106936;1280;22549;-86
2022/08/25 08:03:14;;;;;;;26.60;8.60;;;;;;;24.14;84.29;98097.73;106347;1280;22560;-86
2022/08/25 08:06:09;;;;;;;31.30;10.30;;;;;;;24.25;84.28;98097.89;106127;1280;22562;-87
2022/08/25 08:08:41;;;;;;;32.80;9.70;;;;;;;24.37;84.37;98098.98;106353;1280;22558;-88
2022/08/25 08:11:23;;;;;;;31.10;8.30;;;;;;;24.55;83.94;98100.11;106104;1280;22569;-87
2022/08/25 08:14:44;;;;;;;31.90;8.80;;;;;;;24.71;83.23;98093.73;106269;1280;24246;-88
2022/08/25 08:17:13;;;;;;;30.50;9.50;;;;;;;24.74;82.48;98091.54;106101;1280;25229;-88
2022/08/25 08:19:45;;;;;;;32.30;9.80;;;;;;;24.76;82.42;98087.29;106344;1279;24045;-87
2022/08/25 08:22:16;;;;;;;38.70;10.10;;;;;;;24.80;82.49;98087.70;106251;1280;23949;-87
2022/08/25 08:24:45;;;;;;;36.40;9.10;;;;;;;24.88;81.86;98084.26;106041;1281;26610;-88
2022/08/25 08:27:23;;;;;;;37.80;8.80;;;;;;;24.96;82.14;98086.09;106154;1280;23953;-87
2022/08/25 08:29:52;;;;;;;41.70;9.60;;;;;;;25.12;81.83;98081.96;106183;1280;24281;-88
2022/08/25 08:32:21;;;;;;;31.70;9.00;;;;;;;25.26;81.61;98081.14;106184;1280;22611;-86
2022/08/25 08:34:58;;;;;;;34.30;10.10;;;;;;;25.38;81.01;98077.77;106133;1280;22541;-85
2022/08/25 08:37:26;;;;;;;33.60;9.60;;;;;;;25.40;80.51;98079.65;106098;1280;23360;-89
2022/08/25 08:39:55;;;;;;;35.40;10.40;;;;;;;25.43;80.91;98075.57;106129;1280;23228;-87
2022/08/25 08:42:47;;;;;;;34.50;10.50;;;;;;;25.54;80.41;98079.35;106098;1280;25299;-85
2022/08/25 08:45:28;;;;;;;34.00;10.20;;;;;;;25.60;80.18;98078.65;106066;1280;23020;-86
2022/08/25 08:48:41;;;;;;;30.80;9.70;;;;;;;25.65;79.28;98078.55;106217;1280;22561;-87
2022/08/25 08:51:18;;;;;;;41.00;10.00;;;;;;;25.69;78.96;98071.93;106134;1280;24200;-86
2022/08/25 08:54:05;;;;;;;36.90;9.80;;;;;;;25.78;79.14;98073.59;106366;1280;25525;-87
2022/08/25 08:56:46;;;;;;;33.80;10.10;;;;;;;25.91;79.43;98070.52;106227;1280;22595;-89
2022/08/25 08:59:24;;;;;;;43.00;9.40;;;;;;;26.04;78.87;98068.30;106028;1280;22471;-89
2022/08/25 09:02:00;;;;;;;40.10;11.20;;;;;;;26.10;76.85;98070.10;106255;1280;25445;-88
2022/08/25 09:04:38;;;;;;;39.50;9.60;;;;;;;26.07;76.75;98076.42;106270;1280;26511;-85
2022/08/25 09:07:13;;;;;;;40.60;9.40;;;;;;;26.10;77.00;98073.25;107442;1280;24016;-85
2022/08/25 09:09:44;;;;;;;35.60;9.30;;;;;;;26.08;74.79;98074.61;106659;1280;24360;-85
2022/08/25 09:12:20;;;;;;;31.70;9.30;;;;;;;26.03;74.78;98073.89;106175;1281;24345;-84
2022/08/25 09:15:06;;;;;;;27.90;9.20;;;;;;;26.06;75.34;98071.92;106268;1280;25243;-85
2022/08/25 09:17:52;;;;;;;33.00;10.70;;;;;;;26.12;74.61;98074.83;106243;1280;24197;-83
2022/08/25 09:20:37;;;;;;;37.40;9.60;;;;;;;26.15;75.50;98077.35;106266;1280;25353;-87
2022/08/25 09:23:05;;;;;;;;;;;;;;;26.26;73.71;98073.76;106333;1280;23403;-85
2022/08/25 09:26:09;;;;;;;36.10;9.60;;;;;;;26.26;74.52;98072.34;106384;1280;25500;-84
2022/08/25 09:28:50;;;;;;;36.20;10.00;;;;;;;26.44;74.51;98078.20;106340;1280;25231;-86
2022/08/25 09:31:23;;;;;;;32.40;8.90;;;;;;;26.63;74.66;98078.56;106284;1280;24366;-83
2022/08/25 09:34:00;;;;;;;36.10;9.40;;;;;;;26.85;74.48;98072.21;106154;1280;24327;-84
2022/08/25 09:36:31;;;;;;;41.90;9.80;;;;;;;27.04;73.95;98078.34;106040;1280;22509;-85
2022/08/25 09:39:06;;;;;;;39.80;9.50;;;;;;;27.18;73.40;98071.27;106112;1280;22590;-85
2022/08/25 09:41:56;;;;;;;35.90;9.30;;;;;;;27.30;72.70;98069.13;106316;1280;22549;-85
2022/08/25 09:44:40;;;;;;;33.30;9.00;;;;;;;27.36;73.32;98064.73;106086;1280;24330;-85
2022/08/25 09:47:17;;;;;;;37.70;9.50;;;;;;;27.51;73.43;98062.16;106339;1280;22623;-85
2022/08/25 09:49:50;;;;;;;44.60;9.80;;;;;;;27.70;72.91;98062.80;106021;1281;22644;-87
2022/08/25 09:52:30;;;;;;;37.20;10.40;;;;;;;27.81;72.55;98061.86;105388;1280;1312142;-85
2022/08/25 09:55:05;;;;;;;31.00;8.90;;;;;;;27.86;70.34;98058.65;106034;1281;25250;-85
2022/08/25 09:57:41;;;;;;;33.50;9.20;;;;;;;27.79;71.21;98057.36;106096;1281;22559;-86
2022/08/25 10:00:26;;;;;;;39.50;8.60;;;;;;;27.87;71.25;98055.63;106170;1280;25327;-85
2022/08/25 10:03:06;;;;;;;31.70;9.10;;;;;;;28.06;71.37;98058.38;105877;1281;24104;-86
2022/08/25 10:05:48;;;;;;;43.70;8.70;;;;;;;28.20;69.97;98058.30;106359;1281;22774;-85
2022/08/25 10:08:39;;;;;;;33.70;8.90;;;;;;;28.28;70.17;98055.21;106268;1280;25502;-85
2022/08/25 10:11:13;;;;;;;48.60;9.40;;;;;;;28.39;69.74;98047.41;106261;1280;22548;-84
2022/08/25 10:13:48;;;;;;;34.20;8.80;;;;;;;28.53;69.20;98050.98;107069;1280;22574;-86
2022/08/25 10:16:27;;;;;;;38.00;9.60;;;;;;;28.67;69.22;98049.13;106101;1281;23304;-86
2022/08/25 10:19:24;;;;;;;36.40;8.60;;;;;;;28.78;69.18;98045.19;106171;1280;24297;-87
2022/08/25 10:22:31;;;;;;;33.90;9.10;;;;;;;28.93;68.46;98039.12;106119;1281;24405;-87
2022/08/25 10:24:59;;;;;;;36.00;8.90;;;;;;;28.99;68.08;98041.10;106084;1280;22579;-87
2022/08/25 10:27:51;;;;;;;35.50;8.70;;;;;;;29.00;67.99;98038.15;106401;1281;24270;-88
2022/08/25 10:30:27;;;;;;;30.70;8.40;;;;;;;29.12;68.32;98031.89;106130;1280;22563;-87
2022/08/25 10:33:23;;;;;;;37.30;9.90;;;;;;;29.27;67.60;98030.00;106438;1280;22700;-88
2022/08/25 10:36:10;;;;;;;41.30;8.70;;;;;;;29.36;67.33;98030.09;106340;1280;22558;-87
2022/08/25 10:38:41;;;;;;;34.80;8.50;;;;;;;29.47;66.69;98029.60;106380;1281;22627;-86
2022/08/25 10:41:09;;;;;;;32.90;7.60;;;;;;;29.57;66.47;98028.01;106082;1281;22633;-85
2022/08/25 10:43:50;;;;;;;36.10;8.10;;;;;;;29.66;65.64;98025.33;106469;1280;24367;-85
2022/08/25 10:46:24;;;;;;;34.70;8.00;;;;;;;29.79;65.58;98023.92;106265;1281;22486;-85
2022/08/25 10:49:22;;;;;;;36.00;9.20;;;;;;;29.81;64.48;98018.41;106263;1279;25327;-85
2022/08/25 10:52:12;;;;;;;41.70;9.90;;;;;;;29.94;63.42;98021.83;106339;1281;25558;-86
2022/08/25 10:55:01;;;;;;;37.40;8.90;;;;;;;29.96;63.59;98020.20;106390;1280;24419;-86
2022/08/25 10:57:51;;;;;;;39.60;9.20;;;;;;;30.07;63.86;98018.71;106488;1281;25463;-88
2022/08/25 11:00:22;;;;;;;36.10;9.40;;;;;;;30.09;62.07;98020.26;106282;1281;23112;-87
2022/08/25 11:03:07;;;;;;;39.40;9.30;;;;;;;30.06;62.15;98019.20;106136;1280;22603;-88
2022/08/25 11:05:54;;;;;;;44.40;8.70;;;;;;;30.16;62.03;98017.69;106259;1280;23355;-85
2022/08/25 11:08:37;;;;;;;45.30;9.40;;;;;;;30.28;60.47;98015.88;106182;1280;25389;-88
2022/08/25 11:11:20;;;;;;;29.30;8.30;;;;;;;30.35;60.57;98010.90;106221;1281;22537;-88
2022/08/25 11:13:57;;;;;;;34.70;8.40;;;;;;;30.37;60.41;98007.12;106154;1281;23333;-88
2022/08/25 11:17:06;;;;;;;29.40;8.50;;;;;;;30.37;59.60;98001.64;106589;1281;22818;-87
2022/08/25 11:19:36;;;;;;;43.30;8.50;;;;;;;30.49;60.28;98000.04;106648;1281;22644;-86
2022/08/25 11:22:22;;;;;;;28.40;7.60;;;;;;;30.60;59.39;98000.66;106160;1280;24081;-86
2022/08/25 11:25:11;;;;;;;32.20;8.50;;;;;;;30.74;59.78;97999.56;106220;1281;25351;-84
2022/08/25 11:27:56;;;;;;;34.60;8.40;;;;;;;30.84;58.88;97998.42;106196;1281;22567;-84
2022/08/25 11:30:25;;;;;;;27.80;7.80;;;;;;;30.94;59.35;97998.50;106288;1280;24351;-87
2022/08/25 11:32:54;;;;;;;36.00;8.50;;;;;;;31.03;58.33;97996.31;106195;1281;22534;-86
2022/08/25 11:35:37;;;;;;;32.40;8.50;;;;;;;31.10;58.54;97991.52;106306;1281;24408;-84
2022/08/25 11:38:34;;;;;;;36.80;9.10;;;;;;;31.24;58.05;97984.20;106139;1280;22594;-84
2022/08/25 11:41:47;;;;;;;27.30;7.80;;;;;;;31.33;57.02;97981.59;106246;1281;24367;-86
2022/08/25 11:44:49;;;;;;;33.60;7.60;;;;;;;31.42;57.14;97980.74;105263;1287;25255;-84
2022/08/25 11:48:05;;;;;;;34.20;7.30;;;;;;;31.52;54.79;97978.98;105208;1287;24432;-84
2022/08/25 11:50:52;;;;;;;39.00;7.90;;;;;;;31.53;55.15;97978.00;104591;1295;22579;-85
2022/08/25 11:53:24;;;;;;;35.80;8.80;;;;;;;31.67;55.29;97974.05;104556;1294;22772;-86
2022/08/25 11:56:03;;;;;;;38.90;7.80;;;;;;;31.81;54.47;97968.20;104841;1294;24446;-86